Time;durP1;ratioP1;P1;durP2;ratioP2;P2;SDS_P1;SDS_P2;PMS_P1;PMS_P2;Temp;Humidity;BMP_temperature;BMP_pressure;BME280_temperature;BME280_humidity;BME280_pressure;Samples;Min_cycle;Max_cycle;Signal;HPM_P1;HPM_P2
2024/01/10 06:47:25;;;;;;;1.75;0.70;;;16.00;55.70;;;;;;6217998;23;20250;-82
2024/01/10 06:49:50;;;;;;;1.40;0.80;;;16.00;55.60;;;;;;6196472;23;20135;-81
2024/01/10 06:52:16;;;;;;;1.63;0.90;;;16.00;55.60;;;;;;6171524;23;20154;-82
2024/01/10 06:54:42;;;;;;;1.65;1.00;;;16.00;55.50;;;;;;6171843;23;20134;-82
2024/01/10 06:57:08;;;;;;;1.92;0.75;;;16.00;55.70;;;;;;6172008;23;20137;-82
2024/01/10 06:59:34;;;;;;;1.35;0.88;;;16.00;55.70;;;;;;6223718;23;20130;-82
2024/01/10 07:02:01;;;;;;;2.80;0.80;;;16.00;55.50;;;;;;6170751;23;20127;-83
2024/01/10 07:04:27;;;;;;;1.90;0.80;;;16.10;55.50;;;;;;6195983;23;20640;-80
2024/01/10 07:06:53;;;;;;;1.40;0.73;;;16.00;55.40;;;;;;6196457;23;20149;-81
2024/01/10 07:09:19;;;;;;;1.55;0.52;;;16.10;55.40;;;;;;6170233;23;20150;-82
2024/01/10 07:11:48;;;;;;;2.05;0.70;;;16.10;55.30;;;;;;6146758;23;20458;-81
2024/01/10 07:14:29;;;;;;;1.70;0.73;;;16.10;55.10;;;;;;6146478;23;20601;-82
2024/01/10 07:16:56;;;;;;;1.77;0.70;;;16.10;55.00;;;;;;6084271;23;20220;-82
2024/01/10 07:19:25;;;;;;;1.40;0.80;;;16.10;55.00;;;;;;6082548;23;20148;-84
2024/01/10 07:21:58;;;;;;;1.00;0.80;;;16.20;54.80;;;;;;6082215;23;20160;-82
2024/01/10 07:24:24;;;;;;;1.10;0.80;;;16.20;54.70;;;;;;6082451;23;20162;-81
2024/01/10 07:27:03;;;;;;;2.42;0.90;;;16.30;54.60;;;;;;6105824;23;20181;-80
2024/01/10 07:29:31;;;;;;;1.77;0.60;;;16.30;54.40;;;;;;6058080;23;20236;-85
2024/01/10 07:32:13;;;;;;;1.20;0.63;;;16.30;54.40;;;;;;6109154;23;20167;-85
2024/01/10 07:34:39;;;;;;;1.13;0.60;;;16.30;54.40;;;;;;6044369;23;20244;-84
2024/01/10 07:37:05;;;;;;;1.52;1.10;;;16.40;54.50;;;;;;6045039;23;20150;-82
2024/01/10 07:39:44;;;;;;;1.00;0.70;;;16.30;54.40;;;;;;6053684;23;20150;-85
2024/01/10 07:42:41;;;;;;;1.05;0.80;;;16.40;54.30;;;;;;6057061;23;20157;-86
2024/01/10 07:46:14;;;;;;;;;;;;;;;;;;;;;
2024/01/10 07:56:42;;;;;;;;;;;;;;;;;;;;;
2024/01/10 08:03:35;;;;;;;0.70;0.55;;;16.40;54.50;;;;;;5889499;24;20162;-86
2024/01/10 08:10:55;;;;;;;0.98;0.55;;;16.50;54.20;;;;;;5779828;24;20177;-85
2024/01/10 08:13:47;;;;;;;0.90;0.77;;;16.50;54.30;;;;;;5744968;24;20607;-85
2024/01/10 08:17:27;;;;;;;;;;;;;;;;;;;;;
2024/01/10 08:56:38;;;;;;;4.13;0.80;;;16.70;54.90;;;;;;5993084;23;20161;-85
2024/01/10 08:59:32;;;;;;;;;;;;;;;;;;;;;
2024/01/10 09:02:45;;;;;;;6.15;0.70;;;16.80;54.60;;;;;;5976151;24;20265;-84
2024/01/10 09:05:26;;;;;;;5.75;0.75;;;16.80;54.70;;;;;;5920358;24;20169;-86
2024/01/10 09:08:55;;;;;;;9.52;1.15;;;16.80;54.10;;;;;;5920180;24;20182;-85
2024/01/10 09:11:21;;;;;;;8.65;1.10;;;16.90;54.50;;;;;;5891075;24;20158;-85
2024/01/10 09:14:05;;;;;;;12.45;1.10;;;16.90;54.50;;;;;;5846943;24;20164;-84
2024/01/10 09:16:56;;;;;;;5.45;1.05;;;16.90;54.50;;;;;;5819092;24;20584;-83
2024/01/10 09:20:03;;;;;;;8.50;0.98;;;16.90;54.50;;;;;;5812435;24;20163;-84
2024/01/10 09:22:50;;;;;;;3.75;0.95;;;16.80;54.60;;;;;;5811639;24;20191;-85
2024/01/10 09:25:58;;;;;;;7.47;0.80;;;16.80;55.10;;;;;;5762086;24;20161;-86
2024/01/10 09:29:05;;;;;;;;;;;;;;;;;;;;;
2024/01/10 09:58:58;;;;;;;;;;;;;;;;;;;;;
2024/01/10 10:02:20;;;;;;;1.75;0.65;;;16.90;55.40;;;;;;6160235;23;20167;-85
2024/01/10 10:05:42;;;;;;;7.28;1.23;;;16.90;55.00;;;;;;6084657;23;20170;-85
2024/01/10 10:21:57;;;;;;;5.97;1.10;;;16.90;55.60;;;;;;5676682;25;20168;-84
2024/01/10 10:39:20;;;;;;;3.95;0.90;;;16.80;55.70;;;;;;5692048;25;20174;-84
2024/01/10 10:42:40;;;;;;;;;;;;;;;;;;;;;
2024/01/10 10:45:48;;;;;;;2.47;0.98;;;16.80;55.90;;;;;;5731415;25;20180;-85
2024/01/10 10:58:48;;;;;;;2.53;0.80;;;17.00;55.40;;;;;;4944666;27;4191722;-84
2024/01/10 11:01:31;;;;;;;3.90;0.85;;;17.20;55.10;;;;;;5025331;28;20220;-84
2024/01/10 11:04:01;;;;;;;2.75;0.70;;;17.10;55.00;;;;;;4982816;28;20192;-84
2024/01/10 11:06:27;;;;;;;2.75;0.82;;;17.20;55.00;;;;;;4983888;28;20263;-86
2024/01/10 11:09:12;;;;;;;2.97;0.90;;;17.20;55.00;;;;;;4968400;28;20183;-85
2024/01/10 11:12:17;;;;;;;6.13;0.70;;;17.20;54.80;;;;;;4937020;29;20185;-84
2024/01/10 11:15:45;;;;;;;2.47;1.00;;;17.20;54.90;;;;;;4919078;29;20177;-86
2024/01/10 11:18:49;;;;;;;3.53;1.13;;;17.20;54.80;;;;;;4921082;29;20197;-84
2024/01/10 11:21:33;;;;;;;4.93;0.65;;;17.10;54.80;;;;;;4928822;29;20181;-84
2024/01/10 11:24:08;;;;;;;4.55;1.05;;;17.20;55.40;;;;;;4930941;29;20193;-83
2024/01/10 11:26:44;;;;;;;6.65;1.05;;;17.10;55.00;;;;;;4931989;29;20217;-86
2024/01/10 11:30:17;;;;;;;5.93;1.10;;;17.10;54.90;;;;;;4940911;29;20535;-84
2024/01/10 11:32:50;;;;;;;2.85;0.60;;;17.20;54.60;;;;;;4907547;29;20696;-86
2024/01/10 11:35:32;;;;;;;1.10;0.70;;;17.20;54.80;;;;;;4849757;29;20577;-86
2024/01/10 11:38:12;;;;;;;5.55;0.80;;;17.20;54.50;;;;;;4831147;29;20328;-83
2024/01/10 11:41:22;;;;;;;6.60;1.02;;;17.20;54.60;;;;;;4840694;29;20185;-85
2024/01/10 11:44:31;;;;;;;13.50;1.30;;;17.20;54.60;;;;;;4871933;29;20268;-85
2024/01/10 11:47:18;;;;;;;19.77;1.60;;;17.20;54.60;;;;;;4867424;29;20218;-85
2024/01/10 11:50:00;;;;;;;27.30;2.97;;;17.10;54.60;;;;;;4852965;29;20255;-85
2024/01/10 11:52:47;;;;;;;;;;;;;;;;;;;;;
2024/01/10 11:55:58;;;;;;;10.18;1.75;;;17.30;54.60;;;;;;4808142;29;20259;-85
2024/01/10 11:58:55;;;;;;;12.40;1.35;;;17.20;54.40;;;;;;4781510;29;20236;-84
2024/01/10 12:01:22;;;;;;;3.30;0.77;;;17.20;54.50;;;;;;4794059;30;20239;-85
2024/01/10 12:03:56;;;;;;;9.95;1.35;;;17.30;54.30;;;;;;4778013;30;20323;-84
2024/01/10 12:06:28;;;;;;;7.80;1.00;;;17.30;54.70;;;;;;4785237;30;20259;-84
2024/01/10 12:09:08;;;;;;;8.70;1.25;;;17.20;54.60;;;;;;4787074;30;20185;-84
2024/01/10 12:11:42;;;;;;;8.27;1.20;;;17.30;54.50;;;;;;4766849;30;20199;-84
2024/01/10 12:14:15;;;;;;;8.30;1.10;;;17.30;54.20;;;;;;4766475;30;20243;-84
2024/01/10 12:16:56;;;;;;;8.60;1.45;;;17.30;54.40;;;;;;4765674;30;20220;-84
2024/01/10 12:19:31;;;;;;;7.65;1.10;;;17.30;54.10;;;;;;4762041;30;20184;-84
2024/01/10 12:22:10;;;;;;;12.63;1.25;;;17.40;54.10;;;;;;4804713;29;20255;-83
2024/01/10 12:24:46;;;;;;;9.68;1.08;;;17.30;54.20;;;;;;4792428;29;20197;-82
2024/01/10 12:27:15;;;;;;;6.57;1.05;;;17.30;54.10;;;;;;4855520;29;20196;-83
2024/01/10 12:29:51;;;;;;;5.85;1.17;;;17.30;54.00;;;;;;4856035;29;20192;-83
2024/01/10 12:32:22;;;;;;;7.68;1.25;;;17.40;54.20;;;;;;4840999;29;20196;-83
2024/01/10 12:35:05;;;;;;;8.80;1.23;;;17.30;54.30;;;;;;4897651;29;20340;-83
2024/01/10 12:37:45;;;;;;;5.63;0.80;;;17.30;54.20;;;;;;4885035;29;20276;-84
2024/01/10 12:40:15;;;;;;;8.27;0.90;;;17.30;54.20;;;;;;4862659;29;20223;-82
2024/01/10 12:43:07;;;;;;;6.38;1.10;;;17.30;54.20;;;;;;4870274;29;20226;-84
2024/01/10 12:45:54;;;;;;;10.48;1.50;;;17.30;54.40;;;;;;4856116;29;20193;-84
2024/01/10 12:48:43;;;;;;;;;;;;;;;;;;;;;
2024/01/10 12:51:18;;;;;;;4.35;1.02;;;17.30;54.00;;;;;;4842503;29;20269;-84
2024/01/10 12:54:16;;;;;;;7.75;1.08;;;17.30;54.20;;;;;;4837026;29;20260;-84
2024/01/10 12:56:48;;;;;;;6.03;0.75;;;17.30;54.00;;;;;;4863507;29;20723;-84
2024/01/10 12:59:33;;;;;;;7.20;1.08;;;17.30;54.10;;;;;;4847822;29;20663;-85
2024/01/10 13:02:06;;;;;;;5.00;1.10;;;17.30;54.00;;;;;;4841794;29;20193;-85
2024/01/10 13:05:00;;;;;;;3.33;0.93;;;17.30;54.20;;;;;;4864152;29;20643;-84
2024/01/10 13:07:36;;;;;;;5.95;0.98;;;17.30;53.90;;;;;;4874041;29;20559;-84
2024/01/10 13:10:17;;;;;;;4.07;0.75;;;17.30;54.40;;;;;;4878705;29;20196;-84
2024/01/10 13:12:57;;;;;;;4.38;0.80;;;17.30;53.90;;;;;;4895271;29;20260;-85
2024/01/10 13:15:36;;;;;;;4.22;0.90;;;17.20;54.50;;;;;;4895895;29;20169;-85
2024/01/10 13:18:30;;;;;;;4.65;0.70;;;17.20;54.20;;;;;;4913549;29;20212;-84
2024/01/10 13:21:46;;;;;;;;;;;;;;;;;;;;;
2024/01/10 13:24:50;;;;;;;3.00;1.10;;;17.30;54.60;;;;;;4832118;29;20315;-84
2024/01/10 13:27:19;;;;;;;5.47;0.90;;;17.20;54.40;;;;;;4811285;29;20191;-85
2024/01/10 13:30:11;;;;;;;4.20;0.77;;;17.20;54.20;;;;;;4824382;29;20722;-83
2024/01/10 13:33:10;;;;;;;;;;;;;;;;;;;;;
2024/01/10 13:36:20;;;;;;;;;;;;;;;;;;;;;
2024/01/10 13:38:57;;;;;;;5.68;0.85;;;17.10;54.60;;;;;;4703907;30;20225;-85
2024/01/10 13:48:55;;;;;;;;;;;;;;;;;;;;;
2024/01/10 13:51:42;;;;;;;3.72;0.70;;;17.20;54.40;;;;;;4763716;30;20331;-83
2024/01/10 13:54:30;;;;;;;2.67;0.73;;;17.30;54.30;;;;;;4783854;30;20250;-83
2024/01/10 13:57:26;;;;;;;1.42;0.60;;;17.20;54.30;;;;;;4754042;30;20259;-84
2024/01/10 14:00:03;;;;;;;4.00;0.77;;;17.30;54.50;;;;;;4759467;30;20363;-83
2024/01/10 14:02:39;;;;;;;2.72;0.70;;;17.30;54.20;;;;;;4739475;30;20192;-83
2024/01/10 14:05:10;;;;;;;2.92;0.82;;;17.30;54.20;;;;;;4765508;29;20186;-82
2024/01/10 14:08:02;;;;;;;1.83;0.60;;;17.30;54.20;;;;;;4841609;29;20208;-84
2024/01/10 14:11:01;;;;;;;2.20;0.77;;;17.20;54.20;;;;;;4813462;29;20193;-84
2024/01/10 14:14:09;;;;;;;3.15;0.70;;;17.20;54.20;;;;;;4833353;29;20200;-83
2024/01/10 14:17:27;;;;;;;;;;;;;;;;;;;;;
2024/01/10 14:20:25;;;;;;;3.75;0.60;;;17.20;54.50;;;;;;4805516;29;20691;-83
2024/01/10 14:24:04;;;;;;;;;;;;;;;;;;;;;
2024/01/10 14:26:45;;;;;;;3.80;0.70;;;17.30;54.10;;;;;;4665256;30;20219;-83
2024/01/10 15:17:45;;;;;;;6.32;0.80;;;17.30;54.00;;;;;;4991380;28;20203;-83
2024/01/10 15:21:06;;;;;;;5.28;0.93;;;17.30;54.60;;;;;;4901357;29;20186;-85
2024/01/10 15:24:09;;;;;;;6.82;0.90;;;17.30;54.50;;;;;;4899492;29;20223;-83
2024/01/10 15:27:18;;;;;;;7.05;1.05;;;17.30;54.60;;;;;;4899450;29;20201;-83
2024/01/10 15:30:11;;;;;;;;;;;;;;;;;;;;;
2024/01/10 15:32:38;;;;;;;1.65;0.65;;;17.30;54.60;;;;;;4861358;29;20276;-83
2024/01/10 15:35:19;;;;;;;3.83;0.57;;;17.40;54.20;;;;;;4869565;29;20214;-85
2024/01/10 15:37:49;;;;;;;6.47;0.93;;;17.30;55.10;;;;;;4868726;29;20209;-83
2024/01/10 15:40:22;;;;;;;9.38;1.00;;;17.20;55.20;;;;;;4866446;29;20217;-82
2024/01/10 15:42:54;;;;;;;9.25;0.95;;;17.20;55.40;;;;;;4846821;29;20189;-82
2024/01/10 15:46:06;;;;;;;8.57;1.08;;;17.10;55.70;;;;;;4851471;29;20201;-84
2024/01/10 15:48:46;;;;;;;5.72;0.75;;;17.10;55.70;;;;;;4820862;29;20170;-84
2024/01/10 15:51:28;;;;;;;4.28;0.60;;;17.10;56.20;;;;;;4853407;29;20696;-83
2024/01/10 15:54:23;;;;;;;7.57;0.93;;;17.00;55.60;;;;;;4851873;29;20181;-84
2024/01/10 15:57:00;;;;;;;5.63;0.80;;;17.10;55.60;;;;;;4842134;29;20220;-84
2024/01/10 15:59:37;;;;;;;5.75;0.88;;;17.10;55.70;;;;;;4841630;29;20189;-85
2024/01/10 16:02:20;;;;;;;4.90;1.05;;;17.10;55.40;;;;;;4848687;29;20329;-85
2024/01/10 16:05:07;;;;;;;3.10;0.90;;;17.10;55.50;;;;;;4878813;29;20192;-85
2024/01/10 16:07:45;;;;;;;8.65;1.00;;;17.10;55.40;;;;;;4860778;29;20203;-87
2024/01/10 16:10:28;;;;;;;6.05;0.88;;;17.10;55.20;;;;;;4842276;29;20208;-85
2024/01/10 16:16:36;;;;;;;5.60;0.93;;;17.10;55.50;;;;;;4868110;29;20660;-84
2024/01/10 16:19:05;;;;;;;7.13;0.70;;;17.10;55.50;;;;;;4869665;29;20244;-83
2024/01/10 16:21:47;;;;;;;7.20;1.48;;;17.10;55.80;;;;;;4875921;29;20157;-84
2024/01/10 16:24:17;;;;;;;11.18;1.10;;;17.10;55.30;;;;;;4895096;29;20191;-83
2024/01/10 16:26:43;;;;;;;5.50;0.88;;;17.10;55.40;;;;;;4856212;29;20723;-86
2024/01/10 16:29:09;;;;;;;7.43;0.88;;;17.20;55.70;;;;;;4863892;29;20192;-80
2024/01/10 16:31:48;;;;;;;5.72;1.10;;;17.30;55.60;;;;;;4862858;29;20759;-84
2024/01/10 16:34:20;;;;;;;5.53;1.20;;;17.20;55.30;;;;;;4846838;29;20259;-81
2024/01/10 16:36:52;;;;;;;7.15;1.40;;;17.20;55.80;;;;;;4879616;29;20216;-85
2024/01/10 16:39:27;;;;;;;5.05;0.80;;;17.20;55.60;;;;;;4866718;29;20280;-86
2024/01/10 16:42:03;;;;;;;5.97;0.90;;;17.20;55.60;;;;;;4869371;29;20184;-85
2024/01/10 16:44:38;;;;;;;15.25;2.15;;;17.20;54.90;;;;;;4878283;29;20215;-86
2024/01/10 16:48:09;;;;;;;9.18;1.33;;;17.30;55.50;;;;;;4860292;29;20623;-85
2024/01/10 16:50:38;;;;;;;10.00;1.40;;;17.30;55.60;;;;;;4868160;29;20195;-86
2024/01/10 16:53:24;;;;;;;5.70;1.27;;;17.20;55.60;;;;;;4838662;29;20213;-85
2024/01/10 16:56:07;;;;;;;;;;;;;;;;;;;;;
2024/01/10 16:58:38;;;;;;;11.18;1.40;;;17.30;56.10;;;;;;4868399;29;20283;-85
2024/01/10 17:01:07;;;;;;;5.85;1.00;;;17.30;56.00;;;;;;4851086;29;20185;-86
2024/01/10 17:03:34;;;;;;;10.80;1.00;;;17.30;56.30;;;;;;4833476;29;20232;-86
2024/01/10 17:06:04;;;;;;;7.43;1.05;;;17.40;55.10;;;;;;4852119;29;20193;-85
2024/01/10 17:08:54;;;;;;;;;;;;;;;;;;;;;
2024/01/10 17:12:01;;;;;;;;;;;;;;;;;;;;;
2024/01/10 17:14:59;;;;;;;5.78;0.90;;;17.40;55.00;;;;;;4761782;30;20287;-86
2024/01/10 17:17:41;;;;;;;12.73;1.33;;;17.40;55.00;;;;;;4760937;30;20224;-84
2024/01/10 17:20:14;;;;;;;16.45;1.58;;;17.30;55.30;;;;;;4746431;30;20318;-86
2024/01/10 17:23:00;;;;;;;6.22;1.08;;;17.40;55.30;;;;;;4761343;30;20189;-86
2024/01/10 17:25:27;;;;;;;8.48;1.02;;;17.30;55.40;;;;;;4745973;30;20216;-86
2024/01/10 17:28:17;;;;;;;9.30;1.40;;;17.30;55.30;;;;;;4761123;30;20316;-86
2024/01/10 17:31:59;;;;;;;6.55;1.17;;;17.40;55.50;;;;;;4766466;30;20246;-86
2024/01/10 17:37:56;;;;;;;;;;;;;;;;;;;;;
2024/01/10 17:41:42;;;;;;;7.88;1.23;;;17.40;55.60;;;;;;4687093;30;20232;-83
2024/01/10 17:44:20;;;;;;;5.93;1.02;;;17.50;55.30;;;;;;4635762;30;20199;-85
2024/01/10 17:47:16;;;;;;;;;;;;;;;;;;;;;
2024/01/10 17:49:48;;;;;;;8.65;1.30;;;17.60;57.00;;;;;;4591739;31;20263;-84
2024/01/10 17:52:34;;;;;;;7.28;1.23;;;17.60;56.20;;;;;;4579178;31;20241;-85
2024/01/10 17:55:07;;;;;;;9.05;1.15;;;17.60;56.20;;;;;;4608474;31;20198;-84
2024/01/10 17:58:10;;;;;;;;;;;;;;;;;;;;;
2024/01/10 18:00:47;;;;;;;9.90;1.48;;;17.40;56.00;;;;;;4658345;30;20224;-83
2024/01/10 18:03:56;;;;;;;12.73;1.40;;;17.50;55.80;;;;;;4633535;30;20266;-86
2024/01/10 18:06:40;;;;;;;14.80;2.25;;;17.50;55.60;;;;;;4646330;30;20256;-83
2024/01/10 18:09:16;;;;;;;10.43;1.30;;;17.50;56.20;;;;;;4657625;30;20205;-84
2024/01/10 18:11:47;;;;;;;10.27;1.23;;;17.50;55.80;;;;;;4653441;30;20203;-85
2024/01/10 18:14:19;;;;;;;6.38;1.00;;;17.50;55.50;;;;;;4656191;30;20205;-83
2024/01/10 18:16:49;;;;;;;9.57;1.20;;;17.60;55.10;;;;;;4658244;30;20228;-82
2024/01/10 18:19:19;;;;;;;8.48;1.25;;;17.60;55.90;;;;;;4657304;30;20194;-81
2024/01/10 18:21:48;;;;;;;11.55;1.23;;;17.60;56.10;;;;;;4712828;30;20247;-83
2024/01/10 18:24:22;;;;;;;14.57;1.30;;;17.60;56.50;;;;;;4817611;29;20304;-82
2024/01/10 18:26:54;;;;;;;6.13;1.15;;;17.50;55.50;;;;;;4845406;29;20186;-83
2024/01/10 18:29:27;;;;;;;10.00;1.27;;;17.50;56.40;;;;;;4823170;29;20265;-83
2024/01/10 18:31:52;;;;;;;13.18;1.33;;;17.50;56.30;;;;;;4834962;29;20196;-81
2024/01/10 18:34:19;;;;;;;8.65;1.02;;;17.50;56.10;;;;;;4841897;29;20185;-81
2024/01/10 18:36:47;;;;;;;10.07;1.33;;;17.60;56.30;;;;;;4826137;29;20212;-85
2024/01/10 18:39:19;;;;;;;8.07;1.33;;;17.60;55.90;;;;;;4842104;29;20203;-83
2024/01/10 18:41:55;;;;;;;10.27;1.17;;;17.60;56.20;;;;;;4860211;29;20248;-84
2024/01/10 18:44:28;;;;;;;5.03;1.30;;;17.60;56.10;;;;;;4878075;29;20186;-84
2024/01/10 18:46:58;;;;;;;8.65;1.30;;;17.70;55.90;;;;;;4869730;29;20186;-85
2024/01/10 18:49:27;;;;;;;7.47;1.20;;;17.60;56.70;;;;;;4884445;29;20272;-85
2024/01/10 18:51:57;;;;;;;5.38;1.13;;;17.60;56.70;;;;;;4863801;29;20197;-84
2024/01/10 18:54:30;;;;;;;9.65;1.00;;;17.50;56.90;;;;;;4902487;29;20224;-84
2024/01/10 18:57:12;;;;;;;8.27;1.25;;;17.50;56.30;;;;;;4903522;29;20205;-85
2024/01/10 18:59:43;;;;;;;9.27;1.30;;;17.60;56.10;;;;;;4882950;29;20725;-85
2024/01/10 19:02:16;;;;;;;9.52;1.70;;;17.60;56.20;;;;;;4885060;29;20275;-84
2024/01/10 19:04:46;;;;;;;12.98;1.40;;;17.60;57.10;;;;;;4916935;29;20181;-83
2024/01/10 19:07:24;;;;;;;7.85;1.20;;;17.60;56.70;;;;;;4935745;29;20223;-86
2024/01/10 19:10:33;;;;;;;6.55;1.10;;;17.60;56.10;;;;;;4922325;29;20220;-84
2024/01/10 19:50:22;;;;;;;6.57;1.20;;;17.60;56.50;;;;;;4932363;23;20271;-82
2024/01/10 19:52:52;;;;;;;6.07;0.95;;;17.60;56.70;;;;;;4839636;29;20206;-83
2024/01/10 19:55:19;;;;;;;8.00;1.33;;;17.60;56.70;;;;;;4838018;29;20237;-85
2024/01/10 19:57:47;;;;;;;8.30;1.27;;;17.50;56.80;;;;;;4852197;29;20201;-86
2024/01/10 20:00:18;;;;;;;10.88;1.00;;;17.50;56.80;;;;;;4837998;29;20192;-85
2024/01/10 20:02:50;;;;;;;13.95;1.35;;;17.50;56.90;;;;;;4837138;29;20181;-84
2024/01/10 20:05:23;;;;;;;8.45;1.17;;;17.50;56.90;;;;;;4867239;29;20165;-83
2024/01/10 20:07:50;;;;;;;14.27;1.33;;;17.50;57.30;;;;;;4852812;29;20173;-85
2024/01/10 20:10:21;;;;;;;9.75;1.10;;;17.50;57.10;;;;;;4866868;29;20161;-85
2024/01/10 20:12:47;;;;;;;10.10;1.10;;;17.50;56.70;;;;;;4833288;29;20185;-84
2024/01/10 20:15:14;;;;;;;11.35;1.25;;;17.40;57.20;;;;;;4833477;29;20216;-85
2024/01/10 20:17:45;;;;;;;5.15;1.10;;;17.40;57.30;;;;;;4863868;29;20200;-84
2024/01/10 20:20:15;;;;;;;4.93;1.10;;;17.40;56.80;;;;;;4831299;29;20189;-84
2024/01/10 20:30:27;;;;;;;6.32;1.15;;;17.30;56.70;;;;;;5431264;23;20242;-85
2024/01/10 20:32:57;;;;;;;9.60;1.17;;;17.30;56.80;;;;;;4869625;29;20182;-85
2024/01/10 20:35:22;;;;;;;8.35;1.25;;;17.30;57.10;;;;;;4870099;29;20589;-85
2024/01/10 20:37:48;;;;;;;8.52;0.90;;;17.30;56.80;;;;;;4867739;29;20380;-85
2024/01/10 20:40:15;;;;;;;10.90;1.27;;;17.40;56.90;;;;;;4851082;29;20300;-84
2024/01/10 20:42:41;;;;;;;5.05;0.88;;;17.30;56.70;;;;;;4867335;29;20179;-84
2024/01/10 20:45:07;;;;;;;7.70;1.10;;;17.30;57.10;;;;;;4854065;29;20173;-85
2024/01/10 20:47:39;;;;;;;8.18;1.60;;;17.30;57.20;;;;;;4851766;29;20191;-85
2024/01/10 20:50:06;;;;;;;5.32;0.88;;;17.30;57.30;;;;;;4867064;29;20601;-83
2024/01/10 20:52:32;;;;;;;4.28;0.90;;;17.30;56.90;;;;;;4850061;29;20196;-83
2024/01/10 20:54:59;;;;;;;4.72;1.20;;;17.30;56.90;;;;;;4865997;29;20191;-85
2024/01/10 20:57:24;;;;;;;10.25;1.23;;;17.30;57.00;;;;;;4849972;29;20220;-84
2024/01/10 20:59:50;;;;;;;7.43;1.10;;;17.30;57.10;;;;;;4864950;29;20160;-85
2024/01/10 21:02:20;;;;;;;6.82;1.10;;;17.30;57.10;;;;;;4851728;29;20171;-85
2024/01/10 21:04:47;;;;;;;6.20;1.00;;;17.20;57.30;;;;;;4882983;29;20172;-85
2024/01/10 21:07:14;;;;;;;5.38;1.58;;;17.20;57.60;;;;;;4898747;29;20215;-84
2024/01/10 21:09:42;;;;;;;4.20;0.90;;;17.20;57.80;;;;;;4867707;29;20159;-84
2024/01/10 21:12:11;;;;;;;6.82;1.20;;;17.10;58.00;;;;;;4883688;29;20215;-84
2024/01/10 21:14:40;;;;;;;3.05;0.90;;;17.10;57.90;;;;;;4883195;29;20171;-85
2024/01/10 21:17:06;;;;;;;6.25;0.90;;;17.10;57.90;;;;;;4885663;29;20195;-84
2024/01/10 21:19:34;;;;;;;6.57;1.20;;;17.10;58.00;;;;;;4886779;29;20206;-84
2024/01/10 21:24:33;;;;;;;4.88;1.10;;;17.10;57.90;;;;;;5321726;23;20242;-84
2024/01/10 21:27:04;;;;;;;3.55;0.90;;;17.10;58.00;;;;;;4909448;29;20178;-84
2024/01/10 21:29:30;;;;;;;4.40;1.02;;;17.10;57.60;;;;;;4876048;29;20182;-85
2024/01/10 21:31:57;;;;;;;7.03;1.08;;;17.20;57.40;;;;;;4908002;29;20177;-84
2024/01/10 21:34:24;;;;;;;3.45;0.82;;;17.20;57.30;;;;;;4889810;29;20204;-84
2024/01/10 21:36:52;;;;;;;4.47;0.80;;;17.20;57.10;;;;;;4897167;29;20174;-84
2024/01/10 21:39:18;;;;;;;2.22;0.63;;;17.10;57.50;;;;;;4907786;29;20496;-85
2024/01/10 21:41:50;;;;;;;4.10;0.98;;;17.10;57.60;;;;;;4907522;29;20162;-85
2024/01/10 21:44:21;;;;;;;5.53;1.00;;;17.10;57.80;;;;;;4923284;29;20162;-84
2024/01/10 21:46:48;;;;;;;2.60;0.80;;;17.00;57.80;;;;;;4876365;29;20189;-84
2024/01/10 21:49:14;;;;;;;3.97;0.93;;;17.00;57.90;;;;;;4907209;29;20190;-86
2024/01/10 21:51:40;;;;;;;3.90;0.77;;;16.90;57.90;;;;;;4907763;29;20158;-87
2024/01/10 21:54:06;;;;;;;4.93;0.98;;;16.90;57.90;;;;;;4907744;29;20166;-85
2024/01/10 21:56:32;;;;;;;4.50;0.75;;;16.90;57.90;;;;;;4907598;29;20166;-85
2024/01/10 21:59:02;;;;;;;4.63;1.10;;;16.90;57.90;;;;;;4907079;29;20162;-84
2024/01/10 22:01:28;;;;;;;9.80;1.10;;;16.90;57.90;;;;;;4892062;29;20718;-85
2024/01/10 22:03:54;;;;;;;4.28;1.00;;;16.90;57.70;;;;;;4907160;29;20633;-84
2024/01/10 22:12:18;;;;;;;1.80;0.70;;;16.90;58.00;;;;;;5582848;23;20252;-84
2024/01/10 22:14:44;;;;;;;3.17;1.02;;;16.90;57.60;;;;;;4907094;29;20170;-85
2024/01/10 22:17:11;;;;;;;3.20;0.80;;;16.90;57.60;;;;;;4923021;29;20186;-85
2024/01/10 22:19:40;;;;;;;4.88;1.15;;;17.00;58.40;;;;;;4907041;29;20230;-85
2024/01/10 22:22:06;;;;;;;6.90;1.10;;;16.90;57.80;;;;;;4889784;29;20197;-84
2024/01/10 22:24:32;;;;;;;7.60;0.95;;;16.80;57.70;;;;;;4903240;29;20170;-85
2024/01/10 22:26:58;;;;;;;3.63;1.10;;;16.90;58.00;;;;;;4903523;29;20187;-85
2024/01/10 22:29:27;;;;;;;4.40;0.93;;;16.80;57.90;;;;;;4887160;29;20549;-86
2024/01/10 22:31:55;;;;;;;2.13;0.90;;;16.80;57.80;;;;;;4856227;29;20706;-84
2024/01/10 22:34:24;;;;;;;5.40;1.20;;;16.90;57.80;;;;;;4873854;29;20597;-84
2024/01/10 22:36:56;;;;;;;4.30;0.88;;;16.90;57.70;;;;;;4890154;29;20672;-85
2024/01/10 22:39:28;;;;;;;3.00;1.02;;;16.80;57.90;;;;;;4873033;29;20197;-84
2024/01/10 22:41:55;;;;;;;5.30;1.45;;;16.80;58.00;;;;;;4873485;29;20541;-84
2024/01/10 22:44:20;;;;;;;1.98;0.70;;;16.80;57.90;;;;;;5690528;23;20702;-85
2024/01/10 22:46:47;;;;;;;4.25;0.88;;;16.80;58.00;;;;;;4922115;29;20185;-84
2024/01/10 22:49:13;;;;;;;4.65;1.00;;;16.70;58.00;;;;;;4919340;29;20167;-84
2024/01/10 22:51:43;;;;;;;5.10;0.95;;;16.80;58.00;;;;;;4919982;29;20159;-84
2024/01/10 22:54:13;;;;;;;3.33;1.23;;;16.80;58.00;;;;;;4929552;29;20207;-84
2024/01/10 22:56:42;;;;;;;7.10;0.95;;;16.70;58.00;;;;;;4936676;29;20205;-85
2024/01/10 22:59:10;;;;;;;4.00;0.98;;;16.80;58.00;;;;;;4919192;29;20190;-85
2024/01/10 23:01:37;;;;;;;3.20;0.70;;;16.60;58.00;;;;;;4918326;29;20661;-85
2024/01/10 23:04:02;;;;;;;4.70;1.00;;;16.70;57.90;;;;;;4887035;29;20162;-86
2024/01/10 23:06:28;;;;;;;3.22;0.93;;;16.80;58.00;;;;;;4886848;29;20661;-85
2024/01/10 23:08:54;;;;;;;4.80;0.90;;;16.70;58.00;;;;;;4897206;29;20194;-86
2024/01/10 23:11:20;;;;;;;5.35;1.63;;;16.70;58.00;;;;;;4918267;29;20170;-85
2024/01/10 23:13:48;;;;;;;4.05;0.98;;;16.70;58.10;;;;;;4902365;29;20629;-85
2024/01/10 23:16:14;;;;;;;2.35;0.70;;;16.70;58.00;;;;;;4885605;29;20197;-85
2024/01/10 23:47:08;;;;;;;1.27;0.65;;;16.70;57.90;;;;;;5367204;23;20473;-85
2024/01/10 23:49:35;;;;;;;4.38;0.98;;;16.70;58.10;;;;;;4870848;29;20182;-84
2024/01/10 23:54:38;;;;;;;4.32;0.88;;;16.70;58.60;;;;;;5257934;23;20249;-84
2024/01/10 23:57:04;;;;;;;3.55;0.75;;;16.70;57.90;;;;;;4886346;29;20218;-85
